createdAt,value
2022-11-24T00:01:21.589Z,18.02
2022-11-24T00:04:03.977Z,15.73
2022-11-24T00:06:32.813Z,22.13
2022-11-24T00:08:59.745Z,17.70
2022-11-24T00:11:31.679Z,15.98
2022-11-24T00:13:59.295Z,22.02
2022-11-24T00:16:31.264Z,19.73
2022-11-24T00:19:00.304Z,19.50
2022-11-24T00:21:28.969Z,14.60
2022-11-24T00:23:55.896Z,17.75
2022-11-24T00:26:31.742Z,20.55
2022-11-24T00:29:02.378Z,14.77
2022-11-24T00:31:35.227Z,19.20
2022-11-24T00:34:07.493Z,19.63
2022-11-24T00:36:35.888Z,23.42
2022-11-24T00:39:06.209Z,15.57
2022-11-24T00:41:33.488Z,14.18
2022-11-24T00:44:00.925Z,12.05
2022-11-24T00:46:28.545Z,17.52
2022-11-24T00:48:55.759Z,14.38
2022-11-24T00:51:24.776Z,15.00
2022-11-24T00:53:53.199Z,16.38
2022-11-24T00:56:20.052Z,12.55
2022-11-24T00:58:46.690Z,15.77
2022-11-24T01:01:16.754Z,15.95
2022-11-24T01:03:44.270Z,12.18
2022-11-24T01:06:13.735Z,18.17
2022-11-24T01:08:41.109Z,22.88
2022-11-24T01:11:23.421Z,13.93
2022-11-24T01:13:57.694Z,21.67
2022-11-24T01:16:34.308Z,14.40
2022-11-24T01:19:01.483Z,14.77
2022-11-24T01:21:28.227Z,20.58
2022-11-24T01:23:54.983Z,17.27
2022-11-24T01:26:22.394Z,18.13
2022-11-24T01:28:53.900Z,18.75
2022-11-24T01:31:22.702Z,20.38
2022-11-24T01:33:49.945Z,19.42
2022-11-24T01:36:16.706Z,14.35
2022-11-24T01:38:43.428Z,15.15
2022-11-24T01:41:16.720Z,19.48
2022-11-24T01:43:44.889Z,18.77
2022-11-24T01:46:24.168Z,12.80
2022-11-24T01:49:09.090Z,17.92
2022-11-24T01:51:39.728Z,15.27
2022-11-24T01:54:15.677Z,18.52
2022-11-24T01:56:46.442Z,12.50
2022-11-24T01:59:17.240Z,9.98
2022-11-24T02:01:44.153Z,18.20
2022-11-24T02:04:14.187Z,21.98
2022-11-24T02:06:43.728Z,14.48
2022-11-24T02:09:19.798Z,15.82
2022-11-24T02:11:47.329Z,17.45
2022-11-24T02:14:17.722Z,18.98
2022-11-24T02:16:49.751Z,10.55
2022-11-24T02:19:39.965Z,14.65
2022-11-24T02:22:30.980Z,13.55
2022-11-24T02:25:40.322Z,11.43
2022-11-24T02:28:22.013Z,16.00
2022-11-24T02:30:50.749Z,17.20
2022-11-24T02:33:18.841Z,13.15
2022-11-24T02:35:46.490Z,16.42
2022-11-24T02:38:13.773Z,13.55
2022-11-24T02:40:44.424Z,14.68
2022-11-24T02:43:16.910Z,15.15
2022-11-24T02:45:43.535Z,12.73
2022-11-24T02:48:11.186Z,12.63
2022-11-24T02:50:37.924Z,12.00
2022-11-24T02:53:04.552Z,15.88
2022-11-24T02:55:31.229Z,17.10
2022-11-24T02:57:57.829Z,12.57
2022-11-24T03:00:24.559Z,21.63
2022-11-24T03:02:51.247Z,14.35
2022-11-24T03:05:18.131Z,18.42
2022-11-24T03:07:44.865Z,15.73
2022-11-24T03:10:11.627Z,17.67
2022-11-24T03:12:38.216Z,18.95
2022-11-24T03:15:06.240Z,13.70
2022-11-24T03:17:32.916Z,23.77
2022-11-24T03:20:04.780Z,23.50
2022-11-24T03:22:31.926Z,16.90
2022-11-24T03:24:59.198Z,20.00
2022-11-24T03:27:26.165Z,18.08
2022-11-24T03:29:52.850Z,18.88
2022-11-24T03:32:19.855Z,18.60
2022-11-24T03:34:46.523Z,18.20
2022-11-24T03:37:14.645Z,19.98
2022-11-24T03:39:42.401Z,15.25
2022-11-24T03:42:09.114Z,19.27
2022-11-24T03:44:35.975Z,17.55
2022-11-24T03:47:02.750Z,12.50
2022-11-24T03:49:29.377Z,24.05
2022-11-24T03:51:56.084Z,15.65
2022-11-24T03:54:23.013Z,18.15
2022-11-24T03:56:49.685Z,21.67
2022-11-24T03:59:16.940Z,16.90
2022-11-24T04:01:43.644Z,15.27
2022-11-24T04:04:13.810Z,17.55
2022-11-24T04:06:40.506Z,18.25
2022-11-24T04:09:07.993Z,13.15
2022-11-24T04:11:53.209Z,17.42
2022-11-24T04:14:20.919Z,18.65
2022-11-24T04:16:47.487Z,11.07
2022-11-24T04:19:14.033Z,14.90
2022-11-24T04:21:41.626Z,22.88
2022-11-24T04:24:08.150Z,14.77
2022-11-24T04:26:36.338Z,19.00
2022-11-24T04:29:02.963Z,14.55
2022-11-24T04:31:29.543Z,19.23
2022-11-24T04:33:56.097Z,14.32
2022-11-24T04:36:22.646Z,21.17
2022-11-24T04:39:23.457Z,13.25
2022-11-24T04:41:35.665Z,15.90
2022-11-24T04:44:02.193Z,19.77
2022-11-24T04:46:28.775Z,19.17
2022-11-24T04:48:55.384Z,20.70
2022-11-24T04:51:22.926Z,13.15
2022-11-24T04:53:49.458Z,15.85
2022-11-24T04:56:16.945Z,20.00
2022-11-24T04:58:43.444Z,19.92
2022-11-24T05:01:10.024Z,23.15
2022-11-24T05:03:36.687Z,23.63
2022-11-24T05:06:03.652Z,8.50
2022-11-24T05:08:30.115Z,12.18
2022-11-24T05:10:56.663Z,7.00
2022-11-24T05:13:23.349Z,8.38
2022-11-24T05:15:49.866Z,6.90
2022-11-24T05:18:16.572Z,6.18
2022-11-24T05:20:44.729Z,5.18
2022-11-24T05:23:12.076Z,2.10
2022-11-24T05:25:39.731Z,2.33
2022-11-24T05:28:11.869Z,2.97
2022-11-24T05:30:40.554Z,3.85
2022-11-24T05:33:18.875Z,3.67
2022-11-24T05:35:49.155Z,3.28
2022-11-24T05:38:18.290Z,6.75
2022-11-24T05:40:45.029Z,4.38
2022-11-24T05:43:12.375Z,8.43
2022-11-24T05:45:39.272Z,7.85
2022-11-24T05:48:12.431Z,5.45
2022-11-24T05:50:39.445Z,5.38
2022-11-24T05:53:08.119Z,9.80
2022-11-24T05:55:35.177Z,12.75
2022-11-24T05:58:03.974Z,8.00
2022-11-24T06:00:31.789Z,11.27
2022-11-24T06:02:59.317Z,12.18
2022-11-24T06:05:27.233Z,10.95
2022-11-24T06:07:54.445Z,10.82
2022-11-24T06:10:23.868Z,5.75
2022-11-24T06:12:50.514Z,8.63
2022-11-24T06:15:17.402Z,10.75
2022-11-24T06:17:44.148Z,8.77
2022-11-24T06:20:11.499Z,8.45
2022-11-24T06:22:38.033Z,9.30
2022-11-24T06:25:05.023Z,8.05
2022-11-24T06:27:32.317Z,8.50
2022-11-24T06:29:58.838Z,11.35
2022-11-24T06:32:25.438Z,8.32
2022-11-24T06:34:51.977Z,13.65
2022-11-24T06:37:18.560Z,10.88
2022-11-24T06:39:45.036Z,12.63
2022-11-24T06:42:11.626Z,9.10
2022-11-24T06:44:38.098Z,15.13
2022-11-24T06:47:04.912Z,16.23
2022-11-24T06:49:32.391Z,9.85
2022-11-24T06:51:58.941Z,9.95
2022-11-24T06:54:25.449Z,16.25
2022-11-24T06:56:59.470Z,12.82
2022-11-24T06:59:26.542Z,9.68
2022-11-24T07:01:53.324Z,11.85
2022-11-24T07:04:20.166Z,11.88
2022-11-24T07:06:46.756Z,10.18
2022-11-24T07:09:13.605Z,12.30
2022-11-24T07:11:40.832Z,11.27
2022-11-24T07:14:07.673Z,10.75
2022-11-24T07:16:35.699Z,10.40
2022-11-24T07:19:02.779Z,7.75
2022-11-24T07:21:30.780Z,9.35
2022-11-24T07:23:58.077Z,10.35
2022-11-24T07:26:25.269Z,6.32
2022-11-24T07:28:52.188Z,9.60
2022-11-24T07:31:21.448Z,7.53
2022-11-24T07:33:52.644Z,11.38
2022-11-24T07:36:19.550Z,9.02
2022-11-24T07:38:46.186Z,7.10
2022-11-24T07:41:17.869Z,11.85
2022-11-24T07:43:44.824Z,14.83
2022-11-24T07:46:14.455Z,10.95
2022-11-24T07:48:41.047Z,7.80
2022-11-24T07:51:08.265Z,11.02
2022-11-24T07:53:35.694Z,11.80
2022-11-24T07:56:04.104Z,10.02
2022-11-24T07:58:33.352Z,10.52
2022-11-24T08:01:08.114Z,7.63
2022-11-24T08:03:35.846Z,11.68
2022-11-24T08:08:49.334Z,10.63
2022-11-24T08:11:17.754Z,10.52
2022-11-24T08:13:44.560Z,9.88
2022-11-24T08:16:17.816Z,7.82
2022-11-24T08:18:48.982Z,7.95
2022-11-24T08:21:16.776Z,12.00
2022-11-24T08:23:43.283Z,9.43
2022-11-24T08:26:15.688Z,10.95
2022-11-24T08:28:42.562Z,7.50
2022-11-24T08:31:12.411Z,10.07
2022-11-24T08:33:39.476Z,4.72
2022-11-24T08:36:17.359Z,8.32
2022-11-24T08:38:44.780Z,5.07
2022-11-24T08:41:14.589Z,7.45
2022-11-24T08:43:41.230Z,11.57
2022-11-24T08:46:10.657Z,11.20
2022-11-24T08:48:37.523Z,9.07
2022-11-24T08:51:12.082Z,7.70
2022-11-24T08:53:39.660Z,8.50
2022-11-24T08:56:07.317Z,9.13
2022-11-24T08:58:34.248Z,6.63
2022-11-24T09:01:04.937Z,5.82
2022-11-24T09:03:31.743Z,10.40
2022-11-24T09:05:58.296Z,11.05
2022-11-24T09:08:24.883Z,9.80
2022-11-24T09:10:51.622Z,8.93
2022-11-24T09:13:18.181Z,13.75
2022-11-24T09:15:44.628Z,6.65
2022-11-24T09:18:11.168Z,9.88
2022-11-24T09:20:38.725Z,10.30
2022-11-24T09:23:05.498Z,8.35
2022-11-24T09:25:33.128Z,7.85
2022-11-24T09:27:59.944Z,8.57
2022-11-24T09:30:26.945Z,10.77
2022-11-24T09:32:56.481Z,8.65
2022-11-24T09:35:23.424Z,5.75
2022-11-24T09:37:49.872Z,10.13
2022-11-24T09:40:17.408Z,7.38
2022-11-24T09:42:58.071Z,8.30
2022-11-24T09:46:04.030Z,9.68
2022-11-24T09:48:35.817Z,6.95
2022-11-24T09:51:04.323Z,7.47
2022-11-24T09:53:53.743Z,7.47
2022-11-24T09:56:22.937Z,7.82
2022-11-24T09:58:58.875Z,8.00
2022-11-24T10:01:33.550Z,10.10
2022-11-24T10:04:06.401Z,11.50
2022-11-24T10:06:48.055Z,8.18
2022-11-24T10:10:19.758Z,5.93
2022-11-24T10:13:08.189Z,11.45
2022-11-24T10:16:04.418Z,10.13
2022-11-24T10:18:45.364Z,9.23
2022-11-24T10:21:42.653Z,6.03
2022-11-24T10:24:32.162Z,8.57
2022-11-24T10:27:03.951Z,9.00
2022-11-24T10:29:40.848Z,12.00
2022-11-24T10:32:24.129Z,15.63
2022-11-24T10:34:50.945Z,14.30
2022-11-24T10:37:28.410Z,11.50
2022-11-24T10:40:33.500Z,12.18
2022-11-24T10:43:00.351Z,11.52
2022-11-24T10:45:28.337Z,17.17
2022-11-24T10:47:55.161Z,12.30
2022-11-24T10:50:32.198Z,11.02
2022-11-24T10:53:26.588Z,14.20
2022-11-24T10:55:56.226Z,15.07
2022-11-24T10:58:38.067Z,12.13
2022-11-24T11:01:14.151Z,12.43
2022-11-24T11:03:48.866Z,15.18
2022-11-24T11:06:21.940Z,15.57
2022-11-24T11:08:48.687Z,14.13
2022-11-24T11:11:29.057Z,10.07
2022-11-24T11:14:05.018Z,11.55
2022-11-24T11:16:51.848Z,16.13
2022-11-24T11:20:00.274Z,12.93
2022-11-24T11:22:31.022Z,11.45
2022-11-24T11:25:09.734Z,19.80
2022-11-24T11:27:37.537Z,15.80
2022-11-24T11:36:11.055Z,8.80
2022-11-24T11:38:40.319Z,15.73
2022-11-24T11:41:14.356Z,16.10
2022-11-24T11:43:43.384Z,9.85
2022-11-24T11:46:13.164Z,13.52
2022-11-24T11:48:44.765Z,11.20
2022-11-24T11:51:23.939Z,9.77
2022-11-24T11:53:57.770Z,12.98
2022-11-24T11:56:28.085Z,12.98
2022-11-24T11:59:38.004Z,11.50
2022-11-24T12:02:33.670Z,20.52
2022-11-24T12:05:05.162Z,14.88
2022-11-24T12:08:10.753Z,12.55
2022-11-24T12:10:45.915Z,17.50
2022-11-24T12:13:40.807Z,14.93
2022-11-24T12:16:45.849Z,10.75
2022-11-24T12:19:24.423Z,18.75
2022-11-24T12:22:04.171Z,13.15
2022-11-24T12:24:42.849Z,17.65
2022-11-24T12:27:23.171Z,15.10
2022-11-24T12:30:04.536Z,19.55
2022-11-24T12:32:58.258Z,18.83
2022-11-24T12:35:46.310Z,16.90
2022-11-24T12:38:29.617Z,17.65
2022-11-24T12:44:04.843Z,10.65
2022-11-24T12:46:54.741Z,10.88
2022-11-24T12:49:37.018Z,7.55
2022-11-24T12:52:14.503Z,14.95
2022-11-24T12:54:41.208Z,12.48
2022-11-24T12:57:16.766Z,12.25
2022-11-24T13:00:06.750Z,17.83
2022-11-24T13:02:55.193Z,12.68
2022-11-24T13:06:01.029Z,10.80
2022-11-24T13:08:28.908Z,14.07
2022-11-24T13:11:21.240Z,12.50
2022-11-24T13:14:15.399Z,14.18
2022-11-24T13:17:21.700Z,18.25
2022-11-24T13:19:40.783Z,13.65
2022-11-24T13:22:07.163Z,11.63
2022-11-24T13:24:39.165Z,10.82
2022-11-24T13:27:26.495Z,15.75
2022-11-24T13:29:54.056Z,14.93
2022-11-24T13:32:23.493Z,13.95
2022-11-24T13:34:54.673Z,10.77
2022-11-24T13:37:33.610Z,13.65
2022-11-24T13:40:11.562Z,11.50
2022-11-24T13:42:57.079Z,13.70
2022-11-24T13:45:38.809Z,11.35
2022-11-24T13:48:22.284Z,13.88
2022-11-24T13:50:49.391Z,12.98
2022-11-24T13:53:49.092Z,12.57
2022-11-24T13:56:15.510Z,14.65
2022-11-24T13:58:46.462Z,13.18
2022-11-24T14:01:28.920Z,18.27
2022-11-24T14:04:29.510Z,18.10
2022-11-24T14:06:54.798Z,15.38
2022-11-24T14:09:45.779Z,19.00
2022-11-24T14:12:24.216Z,13.23
2022-11-24T14:14:52.796Z,10.48
2022-11-24T14:17:20.628Z,15.43
2022-11-24T14:19:49.423Z,18.17
2022-11-24T14:22:19.440Z,13.57
2022-11-24T14:24:52.768Z,15.25
2022-11-24T14:27:27.621Z,9.70
2022-11-24T14:29:56.434Z,9.13
2022-11-24T14:32:23.785Z,10.75
2022-11-24T14:34:51.999Z,9.88
2022-11-24T14:37:21.571Z,18.58
2022-11-24T14:39:48.152Z,10.05
2022-11-24T14:42:23.987Z,13.98
2022-11-24T14:45:01.861Z,13.02
2022-11-24T14:47:31.839Z,11.15
2022-11-24T14:50:16.171Z,21.73
2022-11-24T14:52:52.245Z,16.45
2022-11-24T14:55:30.629Z,11.95
2022-11-24T14:57:59.668Z,13.68
2022-11-24T15:00:32.124Z,10.38
2022-11-24T15:05:55.351Z,13.20
2022-11-24T15:08:25.504Z,13.10
2022-11-24T15:10:58.132Z,16.45
2022-11-24T15:16:01.769Z,13.13
2022-11-24T15:18:36.179Z,12.45
2022-11-24T15:21:03.456Z,14.68
2022-11-24T15:23:31.812Z,13.45
2022-11-24T15:26:18.233Z,14.73
2022-11-24T15:28:47.778Z,16.95
2022-11-24T15:31:14.679Z,13.30
2022-11-24T15:33:42.149Z,14.30
2022-11-24T15:36:08.777Z,19.00
2022-11-24T15:38:37.259Z,19.85
2022-11-24T15:41:25.536Z,20.65
2022-11-24T15:43:58.717Z,23.35
2022-11-24T15:46:37.510Z,25.45
2022-11-24T15:49:05.680Z,26.05
2022-11-24T15:51:32.537Z,18.25
2022-11-24T15:54:01.401Z,24.00
2022-11-24T15:56:33.937Z,19.58
2022-11-24T15:59:01.427Z,18.15
2022-11-24T16:01:31.435Z,17.25
2022-11-24T16:03:59.651Z,15.88
2022-11-24T16:06:26.185Z,21.02
2022-11-24T16:08:53.713Z,11.68
2022-11-24T16:11:20.799Z,20.98
2022-11-24T16:13:52.297Z,13.70
2022-11-24T16:16:19.976Z,17.65
2022-11-24T16:18:46.538Z,14.38
2022-11-24T16:21:13.063Z,15.00
2022-11-24T16:23:39.607Z,17.17
2022-11-24T16:26:07.117Z,22.42
2022-11-24T16:28:33.628Z,24.77
2022-11-24T16:31:00.203Z,27.70
2022-11-24T16:33:30.771Z,26.15
2022-11-24T16:35:57.305Z,22.77
2022-11-24T16:38:24.852Z,17.17
2022-11-24T16:40:53.022Z,20.17
2022-11-24T16:43:20.085Z,24.45
2022-11-24T16:45:52.529Z,17.42
2022-11-24T16:48:19.067Z,17.65
2022-11-24T16:50:45.603Z,20.63
2022-11-24T16:53:12.180Z,15.55
2022-11-24T16:55:39.703Z,24.73
2022-11-24T16:58:06.259Z,17.10
2022-11-24T17:00:32.769Z,17.80
2022-11-24T17:02:59.308Z,18.45
2022-11-24T17:05:25.848Z,18.55
2022-11-24T17:07:52.441Z,20.55
2022-11-24T17:10:19.241Z,19.88
2022-11-24T17:12:45.669Z,19.52
2022-11-24T17:18:23.378Z,22.13
2022-11-24T17:20:45.436Z,19.23
2022-11-24T17:23:12.086Z,17.05
2022-11-24T17:25:38.559Z,18.30
2022-11-24T17:28:05.099Z,19.92
2022-11-24T17:30:31.684Z,15.82
2022-11-24T17:32:58.166Z,14.00
2022-11-24T17:35:24.724Z,17.25
2022-11-24T17:37:51.214Z,28.38
2022-11-24T17:40:34.350Z,23.13
2022-11-24T17:43:01.289Z,14.45
2022-11-24T17:45:29.388Z,16.55
2022-11-24T17:48:00.776Z,21.73
2022-11-24T17:50:27.253Z,17.58
2022-11-24T17:52:54.286Z,15.60
2022-11-24T17:55:21.335Z,16.08
2022-11-24T17:57:48.830Z,24.83
2022-11-24T18:00:15.772Z,18.23
2022-11-24T18:02:42.296Z,17.00
2022-11-24T18:05:09.038Z,14.20
2022-11-24T18:07:36.796Z,18.58
2022-11-24T18:10:03.852Z,14.88
2022-11-24T18:12:30.293Z,16.30
2022-11-24T18:14:56.849Z,19.02
2022-11-24T18:17:23.336Z,19.98
2022-11-24T18:19:49.872Z,20.48
2022-11-24T18:22:16.681Z,30.40
2022-11-24T18:24:43.261Z,20.48
2022-11-24T18:27:09.798Z,24.80
2022-11-24T18:29:36.353Z,25.35
2022-11-24T18:32:04.335Z,23.90
2022-11-24T18:34:30.815Z,25.20
2022-11-24T18:36:57.239Z,16.02
2022-11-24T18:39:23.820Z,16.75
2022-11-24T18:41:50.364Z,15.98
2022-11-24T18:44:16.904Z,12.32
2022-11-24T18:46:43.395Z,14.88
2022-11-24T18:49:09.946Z,20.92
2022-11-24T18:51:36.508Z,16.67
2022-11-24T18:54:05.156Z,16.67
2022-11-24T18:56:31.720Z,14.55
2022-11-24T18:58:58.291Z,16.63
2022-11-24T19:01:27.338Z,15.10
2022-11-24T19:03:56.541Z,18.73
2022-11-24T19:06:31.773Z,10.98
2022-11-24T19:08:59.853Z,19.00
2022-11-24T19:11:35.201Z,22.60
2022-11-24T19:14:07.619Z,22.15
2022-11-24T19:16:34.941Z,12.57
2022-11-24T19:19:02.817Z,22.42
2022-11-24T19:21:34.091Z,17.30
2022-11-24T19:24:04.811Z,15.02
2022-11-24T19:26:32.097Z,17.10
2022-11-24T19:28:58.626Z,13.68
2022-11-24T19:31:25.416Z,15.13
2022-11-24T19:33:54.080Z,12.85
2022-11-24T19:36:21.969Z,16.88
2022-11-24T19:38:53.560Z,17.98
2022-11-24T19:41:23.793Z,17.65
2022-11-24T19:43:53.263Z,17.85
2022-11-24T19:46:20.521Z,13.10
2022-11-24T19:48:54.104Z,14.07
2022-11-24T19:51:22.913Z,24.38
2022-11-24T19:53:49.480Z,18.02
2022-11-24T19:56:21.716Z,16.02
2022-11-24T19:58:49.383Z,15.07
2022-11-24T20:01:30.424Z,18.98
2022-11-24T20:04:00.234Z,20.33
2022-11-24T20:06:28.888Z,18.40
2022-11-24T20:08:58.552Z,11.70
2022-11-24T20:11:25.374Z,19.00
2022-11-24T20:13:51.962Z,11.57
2022-11-24T20:16:21.044Z,21.77
2022-11-24T20:18:47.913Z,17.85
2022-11-24T20:21:18.953Z,16.98
2022-11-24T20:23:53.960Z,16.65
2022-11-24T20:26:22.991Z,12.90
2022-11-24T20:28:52.987Z,17.10
2022-11-24T20:31:22.768Z,18.02
2022-11-24T20:33:49.549Z,18.75
2022-11-24T20:36:21.914Z,14.32
2022-11-24T20:38:49.809Z,13.18
2022-11-24T20:41:20.887Z,16.15
2022-11-24T20:43:48.040Z,16.55
2022-11-24T20:46:18.339Z,19.33
2022-11-24T20:48:46.252Z,17.80
2022-11-24T20:51:21.417Z,13.85
2022-11-24T20:53:49.766Z,21.95
2022-11-24T20:56:18.847Z,15.50
2022-11-24T20:58:45.441Z,14.93
2022-11-24T21:01:15.053Z,12.75
2022-11-24T21:03:43.510Z,14.55
2022-11-24T21:06:12.083Z,20.27
2022-11-24T21:09:03.477Z,20.08
2022-11-24T21:11:32.351Z,15.13
2022-11-24T21:13:59.593Z,16.80
2022-11-24T21:16:39.325Z,18.35
2022-11-24T21:19:09.537Z,17.95
2022-11-24T21:21:37.252Z,21.67
2022-11-24T21:24:06.086Z,15.25
2022-11-24T21:26:36.932Z,12.52
2022-11-24T21:29:04.164Z,15.45
2022-11-24T21:31:30.857Z,12.23
2022-11-24T21:33:57.515Z,13.20
2022-11-24T21:36:26.339Z,12.80
2022-11-24T21:38:55.238Z,9.32
2022-11-24T21:41:23.240Z,17.17
2022-11-24T21:43:50.086Z,11.50
2022-11-24T21:46:17.047Z,15.02
2022-11-24T21:48:44.237Z,12.85
2022-11-24T21:51:13.768Z,10.82
2022-11-24T21:53:41.045Z,9.77
2022-11-24T21:56:13.093Z,13.00
2022-11-24T21:58:47.569Z,16.90
2022-11-24T22:01:15.260Z,15.45
2022-11-24T22:03:41.843Z,10.70
2022-11-24T22:06:09.331Z,17.13
2022-11-24T22:08:35.888Z,11.27
2022-11-24T22:11:13.352Z,16.63
2022-11-24T22:13:40.969Z,17.63
2022-11-24T22:16:10.218Z,14.02
2022-11-24T22:18:38.806Z,8.73
2022-11-24T22:21:07.052Z,16.80
2022-11-24T22:23:34.776Z,17.05
2022-11-24T22:26:06.630Z,19.33
2022-11-24T22:28:35.147Z,15.18
2022-11-24T22:31:10.712Z,12.02
2022-11-24T22:33:37.363Z,16.42
2022-11-24T22:36:04.393Z,17.23
2022-11-24T22:38:32.220Z,15.02
2022-11-24T22:41:10.950Z,18.70
2022-11-24T22:43:39.032Z,18.05
2022-11-24T22:46:14.207Z,15.45
2022-11-24T22:48:41.330Z,15.52
2022-11-24T22:51:12.727Z,16.77
2022-11-24T22:53:41.279Z,13.18
2022-11-24T22:56:10.450Z,13.10
2022-11-24T22:58:38.592Z,14.98
2022-11-24T23:01:05.348Z,15.57
2022-11-24T23:03:33.334Z,16.50
2022-11-24T23:06:04.772Z,11.07
2022-11-24T23:08:34.473Z,17.33
2022-11-24T23:11:03.023Z,14.35
2022-11-24T23:13:30.145Z,17.98
2022-11-24T23:16:07.495Z,25.08
2022-11-24T23:18:34.746Z,20.05
2022-11-24T23:21:12.011Z,13.30
2022-11-24T23:23:38.982Z,18.42
2022-11-24T23:26:08.302Z,13.27
2022-11-24T23:28:34.870Z,13.15
2022-11-24T23:31:06.989Z,21.33
2022-11-24T23:33:34.273Z,14.25
2022-11-24T23:36:11.309Z,16.35
2022-11-24T23:38:39.268Z,15.90
2022-11-24T23:41:09.972Z,13.00
2022-11-24T23:43:38.593Z,12.93
2022-11-24T23:46:22.774Z,14.02
2022-11-24T23:48:51.202Z,11.50
2022-11-24T23:51:18.618Z,21.23
2022-11-24T23:53:45.534Z,12.75
2022-11-24T23:56:14.487Z,18.05
2022-11-24T23:58:41.446Z,14.55
